createdAt,value
2023-01-12T00:02:20.264Z,98980.53
2023-01-12T00:04:50.456Z,98965.22
2023-01-12T00:07:20.550Z,98964.41
2023-01-12T00:09:50.510Z,98966.81
2023-01-12T00:12:20.391Z,98962.16
2023-01-12T00:14:48.766Z,98959.69
2023-01-12T00:17:19.665Z,98949.06
2023-01-12T00:19:48.163Z,98957.22
2023-01-12T00:22:19.352Z,98947.63
2023-01-12T00:24:50.055Z,98943.53
2023-01-12T00:27:21.862Z,98946.75
2023-01-12T00:29:50.294Z,98944.72
2023-01-12T00:32:23.191Z,98940.84
2023-01-12T00:34:51.587Z,98944.88
2023-01-12T00:37:20.932Z,98946.31
2023-01-12T00:40:01.366Z,98936.31
2023-01-12T00:42:50.924Z,98925.09
2023-01-12T00:45:30.279Z,98927.50
2023-01-12T00:47:58.673Z,98931.78
2023-01-12T00:50:27.116Z,98931.16
2023-01-12T00:52:58.646Z,98928.47
2023-01-12T00:55:27.001Z,98935.59
2023-01-12T00:57:58.548Z,98937.75
2023-01-12T01:00:28.469Z,98951.22
2023-01-12T01:02:56.854Z,98954.25
2023-01-12T01:05:25.145Z,98961.56
2023-01-12T01:07:53.559Z,98960.97
2023-01-12T01:10:22.512Z,98964.19
2023-01-12T01:12:50.776Z,98957.50
2023-01-12T01:15:20.723Z,98958.34
2023-01-12T01:17:49.027Z,98958.94
2023-01-12T01:20:25.344Z,98968.34
2023-01-12T01:22:53.737Z,98974.50
2023-01-12T01:25:22.205Z,98976.75
2023-01-12T01:27:50.456Z,98970.06
2023-01-12T01:30:21.488Z,98976.19
2023-01-12T01:32:49.900Z,98967.81
2023-01-12T01:35:18.295Z,98967.44
2023-01-12T01:37:46.561Z,98962.13
2023-01-12T01:40:15.863Z,98960.69
2023-01-12T01:42:45.728Z,98953.75
2023-01-12T01:45:16.947Z,98950.28
2023-01-12T01:47:51.838Z,98943.56
2023-01-12T01:50:25.237Z,98945.00
2023-01-12T01:52:57.375Z,98947.84
2023-01-12T01:55:34.119Z,98937.88
2023-01-12T01:58:14.067Z,98933.41
2023-01-12T02:00:44.741Z,98921.81
2023-01-12T02:03:23.426Z,98927.72
2023-01-12T02:05:52.450Z,98919.78
2023-01-12T02:08:28.213Z,98917.16
2023-01-12T02:10:58.950Z,98909.59
2023-01-12T02:13:48.191Z,98901.66
2023-01-12T02:16:25.926Z,98896.56
2023-01-12T02:19:19.344Z,98900.84
2023-01-12T02:22:09.909Z,98890.06
2023-01-12T02:25:11.104Z,98883.94
2023-01-12T02:28:02.367Z,98883.72
2023-01-12T02:30:52.454Z,98884.53
2023-01-12T02:33:36.296Z,98883.69
2023-01-12T02:36:13.012Z,98889.63
2023-01-12T02:38:49.340Z,98877.16
2023-01-12T02:41:42.224Z,98888.16
2023-01-12T02:44:26.365Z,98869.84
2023-01-12T02:46:58.871Z,98872.31
2023-01-12T02:49:33.837Z,98860.09
2023-01-12T02:52:09.497Z,98856.81
2023-01-12T02:54:40.070Z,98855.00
2023-01-12T02:57:12.233Z,98843.00
2023-01-12T02:59:43.364Z,98842.00
2023-01-12T03:02:15.162Z,98837.47
2023-01-12T03:04:45.228Z,98835.06
2023-01-12T03:07:39.828Z,98833.22
2023-01-12T03:10:26.479Z,98839.13
2023-01-12T03:12:57.062Z,98831.19
2023-01-12T03:15:26.525Z,98832.63
2023-01-12T03:18:00.179Z,98827.75
2023-01-12T03:20:34.345Z,98831.84
2023-01-12T03:23:05.184Z,98820.25
2023-01-12T03:25:36.024Z,98822.69
2023-01-12T03:28:08.196Z,98824.53
2023-01-12T03:30:40.140Z,98822.88
2023-01-12T03:33:10.533Z,98826.53
2023-01-12T03:35:49.005Z,98820.44
2023-01-12T03:38:25.784Z,98800.28
2023-01-12T03:41:05.190Z,98804.94
2023-01-12T03:43:40.304Z,98808.63
2023-01-12T03:46:18.156Z,98798.84
2023-01-12T03:48:51.421Z,98803.91
2023-01-12T03:51:25.596Z,98814.91
2023-01-12T03:53:55.374Z,98817.56
2023-01-12T03:56:28.414Z,98817.16
2023-01-12T03:58:57.070Z,98808.03
2023-01-12T04:01:25.684Z,98813.31
2023-01-12T04:03:54.016Z,98804.56
2023-01-12T04:06:24.483Z,98807.00
2023-01-12T04:08:52.942Z,98793.59
2023-01-12T04:11:38.939Z,98804.78
2023-01-12T04:14:07.973Z,98797.66
2023-01-12T04:16:36.311Z,98787.06
2023-01-12T04:19:04.734Z,98790.16
2023-01-12T04:21:51.950Z,98788.72
2023-01-12T04:24:20.444Z,98774.44
2023-01-12T04:26:48.975Z,98776.88
2023-01-12T04:29:17.259Z,98784.22
2023-01-12T04:31:47.963Z,98784.63
2023-01-12T04:34:16.602Z,98782.59
2023-01-12T04:36:55.561Z,98784.22
2023-01-12T04:39:25.587Z,98775.91
2023-01-12T04:41:54.100Z,98762.44
2023-01-12T04:44:25.958Z,98768.53
2023-01-12T04:46:54.394Z,98764.69
2023-01-12T04:49:22.874Z,98767.75
2023-01-12T04:51:51.515Z,98765.91
2023-01-12T04:54:22.433Z,98765.53
2023-01-12T04:56:50.882Z,98762.88
2023-01-12T04:59:19.531Z,98764.50
2023-01-12T05:01:47.986Z,98745.75
2023-01-12T05:04:16.645Z,98758.19
2023-01-12T05:06:45.265Z,98757.97
2023-01-12T05:09:30.934Z,98746.38
2023-01-12T05:12:03.151Z,98738.63
2023-01-12T05:14:31.920Z,98732.94
2023-01-12T05:17:00.798Z,98731.09
2023-01-12T05:19:32.118Z,98732.94
2023-01-12T05:22:00.627Z,98734.13
2023-01-12T05:24:49.166Z,98732.50
2023-01-12T05:27:22.080Z,98735.97
2023-01-12T05:29:50.898Z,98731.94
2023-01-12T05:32:19.640Z,98727.03
2023-01-12T05:34:48.189Z,98716.44
2023-01-12T05:37:16.723Z,98725.63
2023-01-12T05:39:48.338Z,98737.41
2023-01-12T05:42:40.108Z,98713.19
2023-01-12T05:45:11.694Z,98726.41
2023-01-12T05:47:40.137Z,98722.56
2023-01-12T05:50:11.854Z,98722.97
2023-01-12T05:52:40.633Z,98720.91
2023-01-12T05:55:09.572Z,98717.44
2023-01-12T05:57:40.025Z,98708.88
2023-01-12T06:00:09.957Z,98713.78
2023-01-12T06:02:38.522Z,98710.13
2023-01-12T06:05:11.211Z,98701.16
2023-01-12T06:07:41.528Z,98701.13
2023-01-12T06:10:11.388Z,98691.97
2023-01-12T06:12:58.835Z,98688.09
2023-01-12T06:15:27.900Z,98693.97
2023-01-12T06:17:58.179Z,98688.06
2023-01-12T06:20:26.670Z,98688.88
2023-01-12T06:22:55.746Z,98679.91
2023-01-12T06:25:24.232Z,98682.56
2023-01-12T06:28:11.416Z,98671.75
2023-01-12T06:30:40.001Z,98668.47
2023-01-12T06:33:11.643Z,98657.69
2023-01-12T06:35:42.103Z,98659.50
2023-01-12T06:38:10.674Z,98659.28
2023-01-12T06:40:39.164Z,98653.78
2023-01-12T06:43:16.379Z,98641.97
2023-01-12T06:45:44.911Z,98643.78
2023-01-12T06:48:13.661Z,98637.69
2023-01-12T06:50:42.395Z,98642.34
2023-01-12T06:53:11.970Z,98644.56
2023-01-12T06:55:41.968Z,98630.13
2023-01-12T06:58:12.115Z,98620.09
2023-01-12T07:00:40.884Z,98620.56
2023-01-12T07:03:17.041Z,98619.09
2023-01-12T07:05:45.559Z,98626.81
2023-01-12T07:08:19.598Z,98613.97
2023-01-12T07:10:48.229Z,98609.28
2023-01-12T07:13:18.196Z,98608.66
2023-01-12T07:15:49.822Z,98605.56
2023-01-12T07:18:18.337Z,98609.22
2023-01-12T07:20:48.924Z,98601.88
2023-01-12T07:23:17.436Z,98604.75
2023-01-12T07:25:46.072Z,98589.88
2023-01-12T07:28:14.487Z,98603.31
2023-01-12T07:30:44.667Z,98593.50
2023-01-12T07:33:15.757Z,98597.16
2023-01-12T07:35:45.854Z,98590.88
2023-01-12T07:38:14.516Z,98586.38
2023-01-12T07:40:43.272Z,98586.97
2023-01-12T07:43:15.189Z,98590.44
2023-01-12T07:45:45.228Z,98578.63
2023-01-12T07:48:17.154Z,98585.34
2023-01-12T07:50:46.006Z,98581.69
2023-01-12T07:53:17.975Z,98582.50
2023-01-12T07:55:46.697Z,98581.88
2023-01-12T07:58:15.174Z,98577.22
2023-01-12T08:00:45.194Z,98581.88
2023-01-12T08:03:15.239Z,98580.66
2023-01-12T08:05:43.855Z,98582.69
2023-01-12T08:08:12.510Z,98577.19
2023-01-12T08:10:41.236Z,98568.63
2023-01-12T08:13:10.601Z,98580.00
2023-01-12T08:15:43.569Z,98569.38
2023-01-12T08:18:19.527Z,98577.72
2023-01-12T08:20:49.232Z,98570.34
2023-01-12T08:23:22.889Z,98585.19
2023-01-12T08:25:57.304Z,98576.00
2023-01-12T08:28:28.965Z,98583.75
2023-01-12T08:30:57.557Z,98574.53
2023-01-12T08:33:28.043Z,98573.94
2023-01-12T08:35:56.604Z,98571.84
2023-01-12T08:38:28.235Z,98571.19
2023-01-12T08:41:14.822Z,98574.41
2023-01-12T08:44:05.783Z,98567.44
2023-01-12T08:46:36.443Z,98565.19
2023-01-12T08:49:11.581Z,98562.88
2023-01-12T08:51:45.679Z,98561.25
2023-01-12T08:54:16.849Z,98563.88
2023-01-12T08:56:45.683Z,98572.25
2023-01-12T08:59:14.241Z,98578.72
2023-01-12T09:01:43.051Z,98564.06
2023-01-12T09:04:21.490Z,98565.25
2023-01-12T09:06:50.196Z,98564.44
2023-01-12T09:09:20.553Z,98568.34
2023-01-12T09:11:50.938Z,98560.41
2023-01-12T09:14:19.799Z,98564.88
2023-01-12T09:16:48.528Z,98568.13
2023-01-12T09:19:19.001Z,98570.78
2023-01-12T09:21:47.530Z,98571.38
2023-01-12T09:24:16.935Z,98562.75
2023-01-12T09:26:47.992Z,98563.28
2023-01-12T09:29:19.659Z,98554.28
2023-01-12T09:31:48.346Z,98568.94
2023-01-12T09:34:18.549Z,98556.97
2023-01-12T09:36:47.082Z,98562.16
2023-01-12T09:39:27.321Z,98556.09
2023-01-12T09:42:17.268Z,98566.06
2023-01-12T09:45:06.640Z,98562.59
2023-01-12T09:47:39.950Z,98551.97
2023-01-12T09:50:13.497Z,98560.28
2023-01-12T09:52:47.171Z,98551.75
2023-01-12T09:55:19.673Z,98562.50
2023-01-12T09:58:14.296Z,98555.56
2023-01-12T10:00:42.701Z,98563.31
2023-01-12T10:03:26.187Z,98559.84
2023-01-12T10:05:58.761Z,98555.34
2023-01-12T10:08:34.133Z,98543.78
2023-01-12T10:11:11.976Z,98548.06
2023-01-12T10:14:07.259Z,98548.84
2023-01-12T10:16:47.159Z,98547.81
2023-01-12T10:19:24.996Z,98554.75
2023-01-12T10:21:55.556Z,98548.63
2023-01-12T10:24:26.019Z,98548.63
2023-01-12T10:27:01.689Z,98545.31
2023-01-12T10:29:33.842Z,98543.03
2023-01-12T10:32:02.422Z,98526.72
2023-01-12T10:34:50.424Z,98527.47
2023-01-12T10:37:20.541Z,98523.19
2023-01-12T10:39:53.608Z,98523.50
2023-01-12T10:42:42.657Z,98514.28
2023-01-12T10:45:20.973Z,98527.28
2023-01-12T10:47:53.661Z,98520.47
2023-01-12T10:50:26.725Z,98523.28
2023-01-12T10:53:12.628Z,98514.94
2023-01-12T10:55:43.003Z,98517.94
2023-01-12T10:58:24.137Z,98514.69
2023-01-12T11:00:54.335Z,98516.78
2023-01-12T11:03:34.556Z,98516.31
2023-01-12T11:06:28.276Z,98516.53
2023-01-12T11:09:16.677Z,98512.03
2023-01-12T11:11:45.319Z,98519.78
2023-01-12T11:14:26.819Z,98503.69
2023-01-12T11:16:55.535Z,98514.69
2023-01-12T11:19:28.446Z,98513.31
2023-01-12T11:22:07.832Z,98511.38
2023-01-12T11:24:44.911Z,98509.53
2023-01-12T11:27:19.414Z,98516.91
2023-01-12T11:29:57.659Z,98511.59
2023-01-12T11:32:34.005Z,98507.69
2023-01-12T11:35:15.888Z,98509.28
2023-01-12T11:37:45.400Z,98516.38
2023-01-12T11:40:27.616Z,98518.00
2023-01-12T11:43:33.109Z,98502.47
2023-01-12T11:46:10.048Z,98504.47
2023-01-12T11:48:44.909Z,98514.06
2023-01-12T11:51:14.891Z,98512.81
2023-01-12T11:53:44.456Z,98506.75
2023-01-12T11:56:47.359Z,98513.47
2023-01-12T11:59:24.267Z,98514.53
2023-01-12T12:02:03.613Z,98516.59
2023-01-12T12:04:48.624Z,98506.19
2023-01-12T12:07:29.754Z,98515.56
2023-01-12T12:10:08.930Z,98522.72
2023-01-12T12:13:03.587Z,98511.72
2023-01-12T12:15:40.631Z,98514.84
2023-01-12T12:18:18.395Z,98511.44
2023-01-12T12:20:59.487Z,98503.84
2023-01-12T12:23:37.140Z,98513.66
2023-01-12T12:26:14.578Z,98505.69
2023-01-12T12:28:57.102Z,98496.97
2023-01-12T12:31:39.253Z,98506.81
2023-01-12T12:34:29.789Z,98512.25
2023-01-12T12:37:04.452Z,98509.00
2023-01-12T12:39:46.858Z,98506.34
2023-01-12T12:42:49.264Z,98515.97
2023-01-12T12:45:30.897Z,98513.53
2023-01-12T12:48:08.093Z,98522.53
2023-01-12T12:50:41.987Z,98516.41
2023-01-12T12:53:19.084Z,98514.00
2023-01-12T12:55:48.108Z,98526.22
2023-01-12T12:58:40.209Z,98530.16
2023-01-12T13:01:45.255Z,98527.13
2023-01-12T13:04:15.974Z,98522.69
2023-01-12T13:06:48.227Z,98524.53
2023-01-12T13:09:37.485Z,98535.44
2023-01-12T13:12:34.710Z,98530.69
2023-01-12T13:15:32.677Z,98533.34
2023-01-12T13:18:01.436Z,98524.00
2023-01-12T13:21:03.564Z,98525.25
2023-01-12T13:23:52.744Z,98523.19
2023-01-12T13:26:39.589Z,98521.06
2023-01-12T13:29:40.091Z,98522.69
2023-01-12T13:32:44.010Z,98513.69
2023-01-12T13:35:46.834Z,98505.50
2023-01-12T13:38:21.805Z,98503.66
2023-01-12T13:40:55.456Z,98518.78
2023-01-12T13:43:28.998Z,98508.38
2023-01-12T13:46:06.542Z,98511.25
2023-01-12T13:48:36.890Z,98507.06
2023-01-12T13:51:14.489Z,98515.50
2023-01-12T13:53:44.375Z,98512.47
2023-01-12T13:56:21.004Z,98509.25
2023-01-12T13:58:52.578Z,98501.56
2023-01-12T14:01:29.574Z,98511.16
2023-01-12T14:04:27.168Z,98502.69
2023-01-12T14:07:05.989Z,98508.22
2023-01-12T14:09:46.380Z,98519.06
2023-01-12T14:12:38.976Z,98510.28
2023-01-12T14:15:47.704Z,98496.41
2023-01-12T14:18:17.863Z,98495.38
2023-01-12T14:20:48.304Z,98492.94
2023-01-12T14:23:20.230Z,98501.50
2023-01-12T14:26:14.835Z,98495.59
2023-01-12T14:28:45.000Z,98499.50
2023-01-12T14:31:24.922Z,98492.22
2023-01-12T14:33:56.435Z,98491.03
2023-01-12T14:36:29.044Z,98492.28
2023-01-12T14:39:04.238Z,98497.56
2023-01-12T14:41:52.348Z,98486.22
2023-01-12T14:44:41.658Z,98488.28
2023-01-12T14:47:11.049Z,98485.13
2023-01-12T14:49:40.390Z,98493.31
2023-01-12T14:52:27.377Z,98495.59
2023-01-12T14:54:58.041Z,98491.94
2023-01-12T14:57:35.427Z,98493.22
2023-01-12T15:00:23.727Z,98477.56
2023-01-12T15:03:14.473Z,98481.84
2023-01-12T15:05:45.083Z,98482.72
2023-01-12T15:08:27.169Z,98488.59
2023-01-12T15:11:03.793Z,98474.38
2023-01-12T15:13:35.847Z,98484.75
2023-01-12T15:16:29.995Z,98481.50
2023-01-12T15:19:31.778Z,98477.25
2023-01-12T15:22:20.390Z,98482.97
2023-01-12T15:25:06.450Z,98481.94
2023-01-12T15:27:35.430Z,98472.38
2023-01-12T15:30:08.579Z,98482.16
2023-01-12T15:32:48.842Z,98477.28
2023-01-12T15:35:22.316Z,98473.25
2023-01-12T15:37:56.269Z,98461.88
2023-01-12T15:40:27.841Z,98472.66
2023-01-12T15:42:59.261Z,98481.47
2023-01-12T15:45:36.026Z,98481.25
2023-01-12T15:48:07.565Z,98489.00
2023-01-12T15:50:39.881Z,98478.78
2023-01-12T15:53:14.308Z,98476.94
2023-01-12T15:55:42.965Z,98477.28
2023-01-12T15:58:11.542Z,98474.88
2023-01-12T16:00:41.993Z,98476.25
2023-01-12T16:03:38.301Z,98465.88
2023-01-12T16:06:03.415Z,98475.22
2023-01-12T16:08:32.161Z,98462.19
2023-01-12T16:11:15.612Z,98468.09
2023-01-12T16:13:44.089Z,98461.00
2023-01-12T16:16:17.338Z,98463.66
2023-01-12T16:18:46.375Z,98460.19
2023-01-12T16:21:17.247Z,98460.84
2023-01-12T16:23:46.232Z,98450.44
2023-01-12T16:26:14.945Z,98465.13
2023-01-12T16:28:43.948Z,98458.19
2023-01-12T16:31:16.163Z,98459.00
2023-01-12T16:33:45.617Z,98454.34
2023-01-12T16:36:20.747Z,98450.44
2023-01-12T16:38:49.344Z,98450.44
2023-01-12T16:41:23.156Z,98447.41
2023-01-12T16:43:54.344Z,98448.59
2023-01-12T16:46:25.740Z,98439.47
2023-01-12T16:48:55.510Z,98448.81
2023-01-12T16:51:24.707Z,98444.34
2023-01-12T16:53:57.593Z,98432.78
2023-01-12T16:56:26.238Z,98433.78
2023-01-12T16:59:00.593Z,98430.38
2023-01-12T17:01:31.319Z,98434.28
2023-01-12T17:03:59.936Z,98437.16
2023-01-12T17:06:30.542Z,98443.50
2023-01-12T17:09:04.386Z,98441.06
2023-01-12T17:11:34.057Z,98440.84
2023-01-12T17:14:23.189Z,98434.13
2023-01-12T17:17:06.188Z,98442.94
2023-01-12T17:19:38.422Z,98447.63
2023-01-12T17:22:10.152Z,98444.03
2023-01-12T17:24:41.335Z,98441.00
2023-01-12T17:27:20.540Z,98440.38
2023-01-12T17:29:49.585Z,98440.25
2023-01-12T17:32:22.210Z,98437.84
2023-01-12T17:34:50.739Z,98431.13
2023-01-12T17:37:19.107Z,98446.00
2023-01-12T17:39:48.849Z,98444.78
2023-01-12T17:42:37.451Z,98448.03
2023-01-12T17:45:09.760Z,98455.34
2023-01-12T17:47:40.417Z,98449.81
2023-01-12T17:50:09.973Z,98451.00
2023-01-12T17:52:57.035Z,98453.59
2023-01-12T17:55:25.416Z,98451.34
2023-01-12T17:57:56.848Z,98449.88
2023-01-12T18:00:25.633Z,98442.94
2023-01-12T18:02:55.770Z,98448.41
2023-01-12T18:05:28.001Z,98436.56
2023-01-12T18:08:00.116Z,98439.22
2023-01-12T18:10:30.260Z,98436.78
2023-01-12T18:13:00.270Z,98452.25
2023-01-12T18:15:30.600Z,98451.25
2023-01-12T18:18:04.180Z,98447.19
2023-01-12T18:20:32.830Z,98442.47
2023-01-12T18:23:02.230Z,98452.25
2023-01-12T18:25:30.555Z,98462.41
2023-01-12T18:28:01.478Z,98458.53
2023-01-12T18:30:29.882Z,98464.03
2023-01-12T18:33:00.541Z,98453.50
2023-01-12T18:35:29.154Z,98462.06
2023-01-12T18:37:59.073Z,98469.34
2023-01-12T18:40:29.962Z,98469.34
2023-01-12T18:42:57.915Z,98470.97
2023-01-12T18:45:26.746Z,98476.44
2023-01-12T18:48:16.812Z,98471.75
2023-01-12T18:51:02.824Z,98482.34
2023-01-12T18:53:33.350Z,98478.06
2023-01-12T18:56:05.413Z,98481.16
2023-01-12T18:58:36.492Z,98477.31
2023-01-12T19:01:06.648Z,98478.13
2023-01-12T19:03:43.334Z,98483.00
2023-01-12T19:06:22.898Z,98482.41
2023-01-12T19:09:09.974Z,98491.75
2023-01-12T19:11:46.225Z,98486.84
2023-01-12T19:14:33.355Z,98481.38
2023-01-12T19:17:19.024Z,98494.00
2023-01-12T19:19:49.343Z,98482.19
2023-01-12T19:22:35.122Z,98481.56
2023-01-12T19:25:20.928Z,98489.72
2023-01-12T19:28:09.779Z,98486.03
2023-01-12T19:30:38.179Z,98492.50
2023-01-12T19:33:07.195Z,98484.78
2023-01-12T19:35:38.020Z,98485.59
2023-01-12T19:38:06.804Z,98484.94
2023-01-12T19:40:45.532Z,98480.66
2023-01-12T19:43:27.397Z,98483.91
2023-01-12T19:45:59.226Z,98476.16
2023-01-12T19:48:29.460Z,98480.66
2023-01-12T19:51:10.580Z,98479.19
2023-01-12T19:53:42.759Z,98478.16
2023-01-12T19:56:11.837Z,98479.59
2023-01-12T19:58:55.302Z,98475.91
2023-01-12T20:01:24.734Z,98474.50
2023-01-12T20:03:53.705Z,98487.75
2023-01-12T20:06:24.952Z,98482.38
2023-01-12T20:08:54.890Z,98480.75
2023-01-12T20:11:23.413Z,98484.47
2023-01-12T20:13:54.276Z,98473.47
2023-01-12T20:16:22.683Z,98478.38
2023-01-12T20:18:51.225Z,98480.06
2023-01-12T20:21:25.631Z,98486.78
2023-01-12T20:23:57.093Z,98483.53
2023-01-12T20:26:25.461Z,98490.66
2023-01-12T20:28:54.000Z,98493.38
2023-01-12T20:31:23.884Z,98482.81
2023-01-12T20:33:54.058Z,98484.91
2023-01-12T20:36:22.899Z,98483.69
2023-01-12T20:38:51.967Z,98495.75
2023-01-12T20:41:22.786Z,98479.53
2023-01-12T20:43:52.747Z,98492.03
2023-01-12T20:46:21.295Z,98485.75
2023-01-12T20:48:49.858Z,98494.19
2023-01-12T20:51:18.813Z,98485.28
2023-01-12T20:53:48.471Z,98498.19
2023-01-12T20:56:17.092Z,98502.13
2023-01-12T20:58:47.132Z,98497.06
2023-01-12T21:01:17.086Z,98496.47
2023-01-12T21:03:45.671Z,98513.59
2023-01-12T21:06:15.844Z,98523.81
2023-01-12T21:08:45.206Z,98518.31
2023-01-12T21:11:15.832Z,98521.38
2023-01-12T21:13:44.477Z,98521.56
2023-01-12T21:16:18.352Z,98530.56
2023-01-12T21:18:49.192Z,98528.94
2023-01-12T21:21:17.367Z,98529.13
2023-01-12T21:23:45.787Z,98516.31
2023-01-12T21:26:16.231Z,98518.34
2023-01-12T21:28:44.673Z,98526.28
2023-01-12T21:31:19.429Z,98531.19
2023-01-12T21:33:47.992Z,98537.31
2023-01-12T21:36:18.388Z,98541.38
2023-01-12T21:38:51.505Z,98540.16
2023-01-12T21:41:30.117Z,98548.53
2023-01-12T21:43:58.890Z,98551.38
2023-01-12T21:46:31.639Z,98553.19
2023-01-12T21:49:01.782Z,98557.88
2023-01-12T21:51:36.004Z,98561.75
2023-01-12T21:54:04.485Z,98563.59
2023-01-12T21:56:32.963Z,98560.31
2023-01-12T21:59:01.481Z,98569.88
2023-01-12T22:01:34.397Z,98578.22
2023-01-12T22:04:03.242Z,98576.41
2023-01-12T22:06:31.898Z,98574.97
2023-01-12T22:09:00.343Z,98580.25
2023-01-12T22:11:28.812Z,98581.69
2023-01-12T22:13:59.146Z,98580.47
2023-01-12T22:16:27.677Z,98577.44
2023-01-12T22:18:59.861Z,98570.50
2023-01-12T22:21:28.474Z,98587.19
2023-01-12T22:23:56.887Z,98592.69
2023-01-12T22:26:27.752Z,98587.56
2023-01-12T22:28:56.578Z,98579.22
2023-01-12T22:31:25.938Z,98586.38
2023-01-12T22:33:59.075Z,98591.84
2023-01-12T22:36:27.446Z,98590.41
2023-01-12T22:38:56.235Z,98599.59
2023-01-12T22:41:26.975Z,98598.94
2023-01-12T22:43:55.932Z,98595.88
2023-01-12T22:46:26.048Z,98593.44
2023-01-12T22:48:57.610Z,98588.31
2023-01-12T22:51:28.538Z,98584.88
2023-01-12T22:53:57.731Z,98583.44
2023-01-12T22:56:26.534Z,98585.84
2023-01-12T22:58:57.328Z,98587.06
2023-01-12T23:01:27.157Z,98581.53
2023-01-12T23:03:58.576Z,98581.53
2023-01-12T23:06:28.054Z,98580.50
2023-01-12T23:08:56.420Z,98582.31
2023-01-12T23:11:26.426Z,98587.19
2023-01-12T23:13:55.614Z,98585.34
2023-01-12T23:16:24.626Z,98584.94
2023-01-12T23:18:55.463Z,98577.41
2023-01-12T23:21:27.465Z,98582.25
2023-01-12T23:23:57.756Z,98585.94
2023-01-12T23:26:28.096Z,98567.59
2023-01-12T23:29:00.427Z,98582.25
2023-01-12T23:31:31.285Z,98573.50
2023-01-12T23:34:00.171Z,98571.66
2023-01-12T23:36:31.184Z,98573.72
2023-01-12T23:39:01.346Z,98577.19
2023-01-12T23:41:32.945Z,98578.00
2023-01-12T23:44:02.382Z,98575.34
2023-01-12T23:46:34.516Z,98580.25
2023-01-12T23:49:05.211Z,98589.00
2023-01-12T23:51:36.421Z,98574.16
2023-01-12T23:54:05.567Z,98573.13
2023-01-12T23:56:35.350Z,98573.34
2023-01-12T23:59:03.992Z,98573.94
